Time;durP1;ratioP1;P1;durP2;ratioP2;P2;SDS_P1;SDS_P2;PMS_P1;PMS_P2;Temp;Humidity;BMP_temperature;BMP_pressure;BME280_temperature;BME280_humidity;BME280_pressure;Samples;Min_cycle;Max_cycle;Signal;HPM_P1;HPM_P2
2022/06/17 00:00:44;;;;;;;10.38;3.95;;;25.10;95.80;;;;;;5039873;28;20049;-78
2022/06/17 00:03:10;;;;;;;12.80;4.30;;;25.00;96.20;;;;;;5040068;28;20032;-78
2022/06/17 00:05:36;;;;;;;13.93;4.78;;;25.00;96.30;;;;;;5040033;28;20025;-78
2022/06/17 00:08:02;;;;;;;10.70;4.20;;;25.00;96.40;;;;;;5039868;28;20037;-78
2022/06/17 00:10:28;;;;;;;13.80;4.50;;;24.90;96.90;;;;;;5022141;28;20024;-78
2022/06/17 00:12:54;;;;;;;13.43;3.85;;;24.80;96.90;;;;;;5039885;28;20049;-78
2022/06/17 00:15:20;;;;;;;12.88;4.38;;;24.80;97.10;;;;;;5039618;28;20026;-77
2022/06/17 00:17:54;;;;;;;18.67;4.22;;;24.80;97.40;;;;;;5038628;28;20017;-78
2022/06/17 00:20:22;;;;;;;10.70;3.65;;;24.70;97.70;;;;;;5039974;28;20033;-77
2022/06/17 00:22:48;;;;;;;10.98;4.78;;;24.70;97.70;;;;;;5039669;28;20032;-77
2022/06/17 00:25:25;;;;;;;8.15;3.70;;;24.60;97.90;;;;;;5039749;28;20179;-77
2022/06/17 00:27:53;;;;;;;9.23;3.70;;;24.60;97.80;;;;;;5021896;28;20075;-78
2022/06/17 00:30:22;;;;;;;13.38;4.30;;;24.60;97.80;;;;;;5021493;28;20032;-78
2022/06/17 00:32:55;;;;;;;11.20;4.95;;;24.50;98.00;;;;;;5039863;28;20367;-77
2022/06/17 00:35:22;;;;;;;16.17;4.50;;;24.50;98.50;;;;;;5039544;28;20036;-77
2022/06/17 00:37:48;;;;;;;13.48;4.35;;;24.50;98.30;;;;;;5021850;28;20054;-77
2022/06/17 00:40:20;;;;;;;10.45;3.75;;;24.40;98.20;;;;;;5021424;28;20025;-77
2022/06/17 00:42:47;;;;;;;10.68;4.55;;;24.40;98.60;;;;;;5039703;28;20029;-77
2022/06/17 00:45:38;;;;;;;20.88;4.70;;;24.40;99.00;;;;;;5038937;28;20029;-77
2022/06/17 00:48:28;;;;;;;18.98;4.65;;;24.40;98.60;;;;;;5021269;28;20045;-78
2022/06/17 00:51:02;;;;;;;12.65;4.25;;;24.40;98.50;;;;;;5039402;28;20045;-78
2022/06/17 00:53:40;;;;;;;9.90;5.00;;;24.30;98.60;;;;;;5039060;28;20056;-78
2022/06/17 00:56:18;;;;;;;9.48;4.32;;;24.30;99.40;;;;;;5039334;28;20024;-78
2022/06/17 00:59:08;;;;;;;11.98;4.45;;;24.20;99.40;;;;;;5037978;28;20030;-77
2022/06/17 01:01:46;;;;;;;9.38;4.30;;;24.20;99.80;;;;;;5038593;28;20029;-78
2022/06/17 01:04:16;;;;;;;8.63;3.80;;;24.20;99.80;;;;;;5039107;28;20033;-78
2022/06/17 01:06:48;;;;;;;16.48;4.82;;;24.20;99.90;;;;;;5039383;28;20025;-77
2022/06/17 01:12:13;;;;;;;12.63;4.53;;;24.10;99.90;;;;;;5039302;28;20032;-79
2022/06/17 01:14:41;;;;;;;16.50;5.28;;;24.10;99.90;;;;;;5037380;28;20053;-79
2022/06/17 01:17:10;;;;;;;16.38;4.47;;;24.00;99.90;;;;;;5038743;28;20025;-78
2022/06/17 01:19:50;;;;;;;15.02;5.18;;;23.90;99.90;;;;;;5038577;28;20090;-79
2022/06/17 01:22:41;;;;;;;10.23;4.40;;;23.90;99.90;;;;;;5020747;28;20025;-79
2022/06/17 01:25:10;;;;;;;13.30;4.07;;;23.80;99.90;;;;;;5038571;28;20107;-79
2022/06/17 01:27:40;;;;;;;8.77;4.25;;;23.80;99.90;;;;;;5038423;28;20026;-79
2022/06/17 01:30:09;;;;;;;9.60;4.68;;;23.70;99.90;;;;;;5020140;28;20078;-78
2022/06/17 01:32:42;;;;;;;10.00;4.25;;;23.70;99.90;;;;;;5020659;28;20028;-79
2022/06/17 01:35:09;;;;;;;12.63;4.90;;;23.60;99.90;;;;;;5038421;28;20032;-79
2022/06/17 01:37:35;;;;;;;12.13;4.78;;;23.60;99.90;;;;;;5038545;28;20030;-79
2022/06/17 01:40:01;;;;;;;12.23;4.00;;;23.60;99.90;;;;;;5020379;28;20032;-78
2022/06/17 01:42:28;;;;;;;15.07;4.70;;;23.60;99.90;;;;;;5020617;28;20022;-79
2022/06/17 01:44:54;;;;;;;25.50;5.03;;;23.50;99.90;;;;;;5019962;28;20036;-79
2022/06/17 01:47:25;;;;;;;10.25;5.05;;;23.50;99.90;;;;;;5038339;28;20482;-78
2022/06/17 01:49:54;;;;;;;9.40;4.88;;;23.40;99.90;;;;;;5038050;28;20052;-79
2022/06/17 01:52:45;;;;;;;13.80;4.97;;;23.40;99.90;;;;;;5020698;28;20100;-79
2022/06/17 01:55:23;;;;;;;9.68;5.07;;;23.30;99.90;;;;;;5037932;28;20022;-80
2022/06/17 01:58:14;;;;;;;12.80;4.93;;;23.20;99.90;;;;;;5038020;28;20518;-80
2022/06/17 02:00:43;;;;;;;8.82;4.95;;;23.20;99.90;;;;;;5019638;28;20125;-79
2022/06/17 02:03:13;;;;;;;9.73;4.63;;;23.10;99.90;;;;;;5037809;28;20026;-79
2022/06/17 02:05:43;;;;;;;10.65;5.78;;;23.00;99.90;;;;;;5037975;28;20099;-79
2022/06/17 02:08:09;;;;;;;15.48;4.78;;;23.00;99.90;;;;;;5037914;28;20363;-79
2022/06/17 02:10:43;;;;;;;11.93;5.30;;;22.90;99.90;;;;;;5037863;28;20064;-78
2022/06/17 02:13:11;;;;;;;12.07;4.93;;;22.90;99.90;;;;;;5038059;28;20063;-79
2022/06/17 02:15:38;;;;;;;10.93;4.88;;;22.80;99.90;;;;;;5037081;28;20108;-78
2022/06/17 02:18:07;;;;;;;7.50;4.47;;;22.80;99.90;;;;;;5037564;28;20024;-79
2022/06/17 02:20:33;;;;;;;13.48;4.47;;;22.70;99.90;;;;;;5037596;28;20034;-79
2022/06/17 02:23:01;;;;;;;10.43;5.40;;;22.60;99.90;;;;;;5037689;28;20087;-78
2022/06/17 02:25:31;;;;;;;13.10;5.32;;;22.60;99.90;;;;;;5019612;28;20040;-79
2022/06/17 02:28:00;;;;;;;;;;;22.50;99.90;;;;;;5037790;28;20433;-78
2022/06/17 02:30:28;;;;;;;15.52;5.95;;;22.40;99.90;;;;;;5037002;28;19912;-79
2022/06/17 02:32:58;;;;;;;16.48;5.82;;;22.30;99.90;;;;;;5019984;28;20022;-79
2022/06/17 02:35:48;;;;;;;12.40;5.93;;;22.30;99.90;;;;;;5037332;28;20481;-79
2022/06/17 02:38:18;;;;;;;11.80;4.88;;;22.30;99.90;;;;;;5019694;28;20030;-80
2022/06/17 02:40:51;;;;;;;12.10;5.10;;;22.20;99.90;;;;;;5006394;28;20071;-79
2022/06/17 02:43:25;;;;;;;16.92;5.57;;;22.20;99.90;;;;;;5019434;28;20459;-80
2022/06/17 02:46:00;;;;;;;16.63;5.35;;;22.10;99.90;;;;;;5037030;28;20025;-78
2022/06/17 02:48:33;;;;;;;13.05;5.18;;;22.10;99.90;;;;;;5019329;28;20049;-79
2022/06/17 02:51:01;;;;;;;13.68;6.38;;;22.00;99.90;;;;;;5037267;28;20025;-79
2022/06/17 02:53:34;;;;;;;15.10;5.30;;;22.00;99.90;;;;;;5019252;28;20036;-78
2022/06/17 02:56:03;;;;;;;13.32;5.43;;;21.90;99.90;;;;;;5037294;28;20018;-78
2022/06/17 02:58:48;;;;;;;20.20;6.13;;;21.90;99.90;;;;;;5019471;28;20128;-78
2022/06/17 03:01:25;;;;;;;14.90;5.90;;;21.90;99.90;;;;;;5018849;28;20065;-79
2022/06/17 03:03:54;;;;;;;16.58;6.53;;;21.90;99.90;;;;;;5019225;28;20120;-79
2022/06/17 03:06:32;;;;;;;10.50;5.82;;;21.90;99.90;;;;;;5036935;28;20497;-78
2022/06/17 03:09:01;;;;;;;16.85;5.82;;;21.80;99.90;;;;;;5037022;28;20089;-79
2022/06/17 03:11:27;;;;;;;17.48;5.97;;;21.80;99.90;;;;;;5019115;28;20102;-78
2022/06/17 03:14:04;;;;;;;20.95;6.82;;;21.80;99.90;;;;;;5019138;28;20437;-79
2022/06/17 03:16:32;;;;;;;11.80;5.20;;;21.80;99.90;;;;;;5019183;28;20021;-78
2022/06/17 03:18:58;;;;;;;22.15;6.80;;;21.80;99.90;;;;;;5036820;28;20028;-78
2022/06/17 03:21:25;;;;;;;16.50;6.07;;;21.80;99.90;;;;;;5019497;28;20509;-78
2022/06/17 03:24:01;;;;;;;13.90;6.43;;;21.80;99.90;;;;;;5019052;28;20021;-78
2022/06/17 03:26:33;;;;;;;19.83;6.65;;;21.80;99.90;;;;;;5036851;28;20064;-78
2022/06/17 03:29:03;;;;;;;15.98;7.20;;;21.80;99.90;;;;;;5018730;28;20025;-79
2022/06/17 03:31:40;;;;;;;10.43;5.82;;;21.80;99.90;;;;;;5036836;28;20021;-79
2022/06/17 03:34:27;;;;;;;16.92;6.93;;;21.70;99.90;;;;;;5019154;28;20025;-79
2022/06/17 03:36:55;;;;;;;17.90;6.60;;;21.70;99.90;;;;;;5036950;28;20033;-78
2022/06/17 03:39:31;;;;;;;14.95;6.38;;;21.60;99.90;;;;;;5019029;28;20031;-78
2022/06/17 03:42:07;;;;;;;19.98;6.55;;;21.60;99.90;;;;;;5019118;28;20028;-79
2022/06/17 03:44:39;;;;;;;22.38;6.57;;;21.60;99.90;;;;;;5018500;28;20025;-78
2022/06/17 03:47:37;;;;;;;16.23;6.80;;;21.50;99.90;;;;;;4999148;28;20048;-79
2022/06/17 03:50:08;;;;;;;17.58;6.18;;;21.50;99.90;;;;;;5033365;28;20034;-79
2022/06/17 03:52:58;;;;;;;14.73;6.97;;;21.50;99.90;;;;;;5039325;28;20013;-79
2022/06/17 03:55:24;;;;;;;13.68;6.28;;;21.50;99.90;;;;;;5022540;28;20093;-79
2022/06/17 03:57:53;;;;;;;13.23;5.75;;;21.40;99.90;;;;;;5040139;28;20029;-78
2022/06/17 04:00:46;;;;;;;12.07;5.65;;;21.40;99.90;;;;;;5022653;28;20021;-79
2022/06/17 04:03:23;;;;;;;17.27;5.80;;;21.40;99.90;;;;;;5040324;28;20108;-79
2022/06/17 04:06:10;;;;;;;18.00;6.20;;;21.40;99.90;;;;;;5040182;28;20034;-79
2022/06/17 04:08:54;;;;;;;16.65;7.38;;;21.40;99.90;;;;;;5040101;28;20031;-79
2022/06/17 04:11:23;;;;;;;17.17;5.93;;;21.40;99.90;;;;;;5039887;28;20022;-79
2022/06/17 04:13:51;;;;;;;17.75;6.60;;;21.40;99.90;;;;;;5040183;28;20379;-79
2022/06/17 04:16:36;;;;;;;14.18;5.60;;;21.30;99.90;;;;;;5039358;28;20028;-79
2022/06/17 04:19:24;;;;;;;13.65;6.38;;;21.30;99.90;;;;;;5039729;28;20053;-79
2022/06/17 04:21:51;;;;;;;9.82;5.97;;;21.30;99.90;;;;;;5022289;28;20029;-79
2022/06/17 04:24:21;;;;;;;15.68;6.57;;;21.30;99.90;;;;;;5022458;28;20029;-79
2022/06/17 04:26:51;;;;;;;14.98;6.43;;;21.30;99.90;;;;;;5039806;28;20053;-79
2022/06/17 04:29:39;;;;;;;14.75;6.57;;;21.20;99.90;;;;;;5039052;28;20036;-79
2022/06/17 04:32:28;;;;;;;12.35;6.40;;;21.20;99.90;;;;;;5039843;28;20108;-79
2022/06/17 04:34:54;;;;;;;14.32;5.88;;;21.20;99.90;;;;;;5039780;28;20018;-79
2022/06/17 04:37:22;;;;;;;16.73;5.93;;;21.20;99.90;;;;;;5021560;28;20560;-79
2022/06/17 04:39:59;;;;;;;18.73;7.88;;;21.30;99.90;;;;;;5039456;28;20028;-79
2022/06/17 04:42:40;;;;;;;23.20;6.82;;;21.30;99.90;;;;;;5026828;28;20456;-79
2022/06/17 04:45:27;;;;;;;14.23;6.53;;;21.30;99.90;;;;;;5021303;28;20048;-79
2022/06/17 04:47:53;;;;;;;18.50;6.60;;;21.30;99.90;;;;;;5039444;28;20049;-79
2022/06/17 04:50:24;;;;;;;14.07;6.82;;;21.30;99.90;;;;;;5039214;28;20420;-79
2022/06/17 04:52:51;;;;;;;12.18;7.03;;;21.30;99.90;;;;;;5039530;28;20589;-79
2022/06/17 04:55:46;;;;;;;16.50;7.40;;;21.40;99.90;;;;;;5037942;28;20025;-79
2022/06/17 04:58:16;;;;;;;13.68;6.18;;;21.40;99.90;;;;;;5022290;28;20045;-79
2022/06/17 05:00:48;;;;;;;16.33;6.40;;;21.50;99.90;;;;;;5038938;28;20156;-79
2022/06/17 05:03:15;;;;;;;12.32;6.50;;;21.50;99.90;;;;;;5037191;28;20175;-78
2022/06/17 05:05:44;;;;;;;14.50;6.65;;;21.50;99.90;;;;;;5038953;28;20028;-79
2022/06/17 05:09:08;;;;;;;14.07;6.28;;;21.50;99.90;;;;;;5039056;28;20025;-79
2022/06/17 05:11:38;;;;;;;12.60;6.45;;;21.50;99.90;;;;;;5020544;28;20029;-79
2022/06/17 05:14:40;;;;;;;14.90;7.05;;;21.60;99.90;;;;;;5038704;28;20027;-79
2022/06/17 05:17:06;;;;;;;14.63;6.50;;;21.60;99.90;;;;;;5004162;28;20029;-79
2022/06/17 05:19:33;;;;;;;17.08;6.35;;;21.80;99.90;;;;;;5020924;28;20036;-79
2022/06/17 05:22:00;;;;;;;15.23;6.70;;;21.90;99.90;;;;;;5021079;28;20037;-78
2022/06/17 05:24:28;;;;;;;14.27;6.18;;;22.00;99.90;;;;;;5020778;28;20112;-79
2022/06/17 05:26:54;;;;;;;13.77;6.32;;;22.10;99.90;;;;;;5038632;28;20017;-79
2022/06/17 05:29:19;;;;;;;17.55;7.50;;;22.20;99.90;;;;;;5038225;28;20064;-79
2022/06/17 05:31:49;;;;;;;13.48;6.63;;;22.20;99.90;;;;;;5020972;28;20068;-79
2022/06/17 05:34:16;;;;;;;17.47;6.73;;;22.30;99.90;;;;;;5038438;28;20033;-79
2022/06/17 05:36:41;;;;;;;11.80;5.90;;;22.40;99.90;;;;;;5020833;28;20022;-79
2022/06/17 05:39:07;;;;;;;14.48;6.60;;;22.50;99.90;;;;;;5020534;28;20028;-79
2022/06/17 05:41:33;;;;;;;19.73;7.35;;;22.60;99.90;;;;;;5020501;28;20026;-79
2022/06/17 05:43:59;;;;;;;18.58;6.85;;;22.80;99.90;;;;;;5038042;28;20032;-79
2022/06/17 05:46:25;;;;;;;14.23;6.38;;;22.80;99.90;;;;;;5020776;28;20033;-79
2022/06/17 05:48:50;;;;;;;24.65;6.30;;;22.90;99.90;;;;;;5017032;28;20173;-79
2022/06/17 05:51:16;;;;;;;16.00;7.03;;;23.00;99.90;;;;;;5017217;28;20026;-79
2022/06/17 05:53:42;;;;;;;22.45;6.78;;;23.10;99.90;;;;;;5016665;28;20027;-79
2022/06/17 05:56:08;;;;;;;20.63;7.15;;;23.10;99.90;;;;;;5010190;28;20026;-78
2022/06/17 05:58:34;;;;;;;12.45;6.38;;;23.20;99.90;;;;;;5016414;28;20498;-79
2022/06/17 06:01:00;;;;;;;22.40;7.18;;;23.30;99.90;;;;;;5017335;28;20021;-78
2022/06/17 06:03:28;;;;;;;16.02;6.47;;;23.40;99.90;;;;;;5017558;28;20022;-79
2022/06/17 06:05:54;;;;;;;13.75;6.60;;;23.40;99.90;;;;;;5017433;28;20014;-79
2022/06/17 06:08:20;;;;;;;25.70;7.05;;;23.60;99.90;;;;;;5014637;28;20022;-79
2022/06/17 06:10:46;;;;;;;11.50;6.60;;;23.70;99.90;;;;;;5013983;28;20029;-79
2022/06/17 06:13:18;;;;;;;20.38;7.13;;;23.80;99.90;;;;;;5004922;28;20025;-79
2022/06/17 06:15:47;;;;;;;13.52;6.38;;;23.80;99.90;;;;;;5013322;28;20049;-81
2022/06/17 06:18:16;;;;;;;18.63;6.35;;;24.00;99.90;;;;;;5004477;28;20029;-78
2022/06/17 06:20:41;;;;;;;20.63;6.82;;;24.10;99.90;;;;;;5004959;28;20113;-78
2022/06/17 06:23:08;;;;;;;13.88;7.50;;;24.30;99.90;;;;;;5008083;28;20084;-78
2022/06/17 06:25:34;;;;;;;17.80;6.47;;;24.30;99.90;;;;;;5006910;28;20054;-78
2022/06/17 06:28:08;;;;;;;18.52;6.55;;;24.50;99.90;;;;;;5011651;28;20570;-80
2022/06/17 06:30:34;;;;;;;15.48;5.85;;;24.80;99.90;;;;;;5011828;28;20479;-79
2022/06/17 06:33:01;;;;;;;25.70;8.18;;;24.80;99.90;;;;;;5014669;28;20022;-79
2022/06/17 06:35:33;;;;;;;16.38;6.97;;;25.00;99.90;;;;;;5005873;28;20033;-78
2022/06/17 06:37:59;;;;;;;21.52;7.13;;;25.00;99.90;;;;;;5014829;28;20483;-79
2022/06/17 06:40:26;;;;;;;18.38;6.88;;;25.30;99.90;;;;;;5015486;28;20398;-79
2022/06/17 06:42:52;;;;;;;20.63;6.85;;;25.30;99.90;;;;;;5017044;28;20507;-79
2022/06/17 06:45:23;;;;;;;14.88;5.63;;;25.40;99.90;;;;;;5016623;28;20026;-79
2022/06/17 06:47:50;;;;;;;26.10;7.40;;;25.50;99.90;;;;;;5017406;28;20041;-78
2022/06/17 06:50:19;;;;;;;16.85;6.53;;;25.70;99.90;;;;;;5025219;28;20573;-79
2022/06/17 06:52:45;;;;;;;24.52;7.07;;;25.80;99.90;;;;;;5003797;28;20113;-78
2022/06/17 06:55:12;;;;;;;22.83;6.88;;;25.80;99.90;;;;;;5027173;28;20053;-78
2022/06/17 06:57:48;;;;;;;13.43;5.95;;;25.80;99.90;;;;;;5035031;28;20010;-78
2022/06/17 07:00:17;;;;;;;21.00;7.57;;;25.90;99.90;;;;;;5018771;28;20410;-78
2022/06/17 07:02:43;;;;;;;27.33;6.78;;;26.10;99.90;;;;;;5034048;28;20025;-78
2022/06/17 07:05:09;;;;;;;15.00;5.72;;;26.20;99.90;;;;;;5020355;28;20022;-78
2022/06/17 07:07:35;;;;;;;18.98;6.18;;;26.40;99.90;;;;;;5031554;28;20022;-79
2022/06/17 07:10:01;;;;;;;13.68;6.10;;;26.40;99.90;;;;;;5034439;28;20082;-78
2022/06/17 07:12:27;;;;;;;12.70;5.43;;;26.50;99.90;;;;;;5033594;28;20135;-79
2022/06/17 07:14:52;;;;;;;21.52;6.20;;;26.60;99.90;;;;;;5036077;28;20025;-79
2022/06/17 07:17:18;;;;;;;13.30;5.45;;;26.80;99.90;;;;;;5023848;28;20044;-79
2022/06/17 07:19:44;;;;;;;14.30;5.55;;;26.90;99.90;;;;;;5000926;28;20394;-78
2022/06/17 07:22:10;;;;;;;18.30;5.30;;;27.00;99.90;;;;;;5001542;28;20022;-78
2022/06/17 07:24:36;;;;;;;19.60;6.25;;;27.00;99.90;;;;;;5017906;28;20034;-78
2022/06/17 07:27:02;;;;;;;15.30;6.03;;;27.10;99.90;;;;;;5036162;28;20021;-75
2022/06/17 07:29:28;;;;;;;15.02;5.57;;;27.10;99.90;;;;;;5022293;28;20029;-78
2022/06/17 07:31:54;;;;;;;15.93;6.75;;;27.20;99.90;;;;;;5035722;28;20071;-78
2022/06/17 07:34:20;;;;;;;14.55;6.28;;;27.40;99.90;;;;;;5011715;28;20099;-78
2022/06/17 07:42:14;;;;;;;13.63;5.70;;;27.60;99.90;;;;;;5037886;28;20028;-75
2022/06/17 07:44:40;;;;;;;18.65;6.53;;;27.60;99.90;;;;;;5019963;28;20549;-76
2022/06/17 07:47:14;;;;;;;14.13;5.28;;;27.80;99.90;;;;;;5027878;28;20552;-75
2022/06/17 07:49:40;;;;;;;16.98;6.05;;;28.00;99.90;;;;;;5023765;28;20046;-76
2022/06/17 07:52:06;;;;;;;16.67;5.50;;;28.20;99.90;;;;;;5007849;28;20032;-75
2022/06/17 07:54:31;;;;;;;17.70;5.35;;;28.30;99.90;;;;;;5036016;28;20026;-75
2022/06/17 07:56:57;;;;;;;16.27;5.13;;;28.60;99.90;;;;;;5034882;28;20026;-75
2022/06/17 07:59:23;;;;;;;18.33;4.50;;;28.60;99.90;;;;;;5018431;28;20096;-75
2022/06/17 08:01:49;;;;;;;12.75;4.30;;;28.80;99.90;;;;;;5032790;28;20474;-75
2022/06/17 08:04:15;;;;;;;14.50;4.50;;;28.90;99.90;;;;;;5030155;28;20040;-75
2022/06/17 08:06:40;;;;;;;11.13;4.88;;;29.00;99.90;;;;;;5039742;28;20026;-76
2022/06/17 08:09:06;;;;;;;11.98;4.65;;;29.10;99.90;;;;;;5017400;28;20026;-76
2022/06/17 08:11:32;;;;;;;13.98;4.72;;;29.30;99.90;;;;;;5039489;28;20027;-76
2022/06/17 08:13:58;;;;;;;12.27;4.90;;;29.30;99.90;;;;;;5032361;28;20056;-75
2022/06/17 08:16:24;;;;;;;15.13;4.50;;;29.40;99.90;;;;;;5035374;28;20562;-75
2022/06/17 08:18:50;;;;;;;17.55;5.20;;;29.50;99.90;;;;;;5013266;28;20034;-76
2022/06/17 08:21:16;;;;;;;12.30;4.80;;;29.60;99.90;;;;;;5027478;28;20026;-76
2022/06/17 08:23:41;;;;;;;19.35;4.57;;;29.70;99.90;;;;;;5023340;28;20026;-75
2022/06/17 08:26:07;;;;;;;14.38;5.45;;;29.80;99.60;;;;;;5021445;28;20034;-75
2022/06/17 08:28:33;;;;;;;21.98;6.28;;;29.80;99.60;;;;;;5028461;28;20022;-76
2022/06/17 08:30:59;;;;;;;16.73;5.22;;;29.90;99.90;;;;;;5028777;28;20064;-75
2022/06/17 08:33:29;;;;;;;13.80;5.85;;;30.00;99.90;;;;;;5034910;28;20060;-76
2022/06/17 08:35:59;;;;;;;11.68;5.28;;;30.00;99.10;;;;;;5036622;28;20383;-76
2022/06/17 08:38:30;;;;;;;16.15;5.78;;;30.00;99.20;;;;;;5036529;28;20163;-76
2022/06/17 08:40:59;;;;;;;19.23;5.97;;;30.10;99.10;;;;;;5037845;28;20037;-75
2022/06/17 08:44:03;;;;;;;23.15;6.28;;;30.20;98.90;;;;;;5038908;28;20021;-76
2022/06/17 08:46:57;;;;;;;19.05;5.57;;;30.20;98.90;;;;;;5020203;28;20554;-76
2022/06/17 08:50:20;;;;;;;24.80;5.70;;;30.10;98.40;;;;;;5012228;28;20415;-76
2022/06/17 08:53:09;;;;;;;17.85;5.03;;;30.20;99.00;;;;;;4941380;29;20028;-77
2022/06/17 08:56:05;;;;;;;13.00;5.18;;;30.40;98.10;;;;;;5008012;28;20110;-78
2022/06/17 08:58:50;;;;;;;22.70;6.53;;;30.60;98.50;;;;;;5016731;28;20033;-77
2022/06/17 09:01:19;;;;;;;18.60;6.00;;;30.70;97.70;;;;;;5012676;28;20033;-77
2022/06/17 09:03:54;;;;;;;18.83;6.25;;;30.60;96.50;;;;;;5018800;28;20030;-77
2022/06/17 09:06:55;;;;;;;13.88;5.97;;;30.60;96.10;;;;;;5017811;28;20093;-77
2022/06/17 09:09:32;;;;;;;18.40;6.85;;;30.60;97.40;;;;;;5001363;28;20038;-77
2022/06/17 09:12:29;;;;;;;23.92;6.30;;;30.80;97.90;;;;;;5018727;28;20072;-76
2022/06/17 09:15:14;;;;;;;22.63;6.45;;;31.00;96.40;;;;;;5008034;28;20026;-77
2022/06/17 09:18:15;;;;;;;22.85;5.57;;;30.90;96.00;;;;;;5009000;28;20033;-77
2022/06/17 09:20:43;;;;;;;13.85;5.55;;;31.10;97.40;;;;;;5002393;28;20049;-77
2022/06/17 09:23:13;;;;;;;15.35;5.90;;;31.10;96.80;;;;;;5006589;28;20045;-78
2022/06/17 09:25:42;;;;;;;22.30;6.20;;;31.30;97.50;;;;;;5007422;28;20082;-77
2022/06/17 09:28:21;;;;;;;17.23;5.93;;;31.60;96.90;;;;;;5011915;28;20119;-77
2022/06/17 09:30:56;;;;;;;15.00;5.53;;;31.60;95.80;;;;;;5014356;28;20044;-76
2022/06/17 09:34:02;;;;;;;12.80;4.85;;;31.80;94.90;;;;;;5015325;28;20080;-77
2022/06/17 09:37:01;;;;;;;19.48;5.63;;;31.90;95.50;;;;;;5008974;28;20030;-78
2022/06/17 09:39:41;;;;;;;17.33;5.75;;;31.90;95.00;;;;;;4999902;28;20022;-77
2022/06/17 09:42:22;;;;;;;13.93;5.20;;;32.10;95.00;;;;;;4992890;28;20446;-77
2022/06/17 09:45:14;;;;;;;12.88;5.65;;;32.20;93.30;;;;;;5001714;28;20031;-78
2022/06/17 09:47:56;;;;;;;15.40;6.00;;;32.20;94.50;;;;;;5018923;28;20099;-78
2022/06/17 09:50:37;;;;;;;13.38;4.82;;;32.20;93.40;;;;;;5014419;28;20028;-77
2022/06/17 09:53:28;;;;;;;18.10;5.63;;;32.40;93.20;;;;;;5024551;28;20378;-77
2022/06/17 09:56:16;;;;;;;21.02;4.50;;;32.60;92.10;;;;;;5025321;28;20021;-76
2022/06/17 09:58:57;;;;;;;18.10;4.60;;;32.70;91.20;;;;;;5025685;28;20029;-76
2022/06/17 10:01:24;;;;;;;18.75;5.47;;;32.70;91.30;;;;;;5011524;28;20116;-77
2022/06/17 10:03:50;;;;;;;21.65;5.82;;;32.80;91.40;;;;;;5015083;28;20375;-77
2022/06/17 10:06:22;;;;;;;14.75;5.78;;;33.00;90.40;;;;;;5013541;28;20029;-78
2022/06/17 10:09:33;;;;;;;18.52;5.97;;;32.90;90.60;;;;;;5035029;28;20398;-78
2022/06/17 10:12:34;;;;;;;13.95;5.53;;;33.10;91.90;;;;;;5019764;28;20112;-79
2022/06/17 10:18:31;;;;;;;17.13;6.18;;;33.20;91.40;;;;;;5029681;28;20088;-78
2022/06/17 10:18:59;;;;;;;10.48;4.90;;;33.20;89.30;;;;;;5015887;28;20060;-78
2022/06/17 10:21:52;;;;;;;14.88;4.50;;;33.10;89.40;;;;;;4983126;28;20054;-77
2022/06/17 10:24:26;;;;;;;16.25;4.60;;;33.20;90.60;;;;;;5037270;28;20482;-79
2022/06/17 10:27:11;;;;;;;12.00;4.47;;;33.40;88.20;;;;;;5036623;28;20042;-79
2022/06/17 10:29:58;;;;;;;14.07;4.18;;;33.70;87.20;;;;;;5029357;28;20025;-78
2022/06/17 10:32:26;;;;;;;15.68;4.35;;;33.70;82.60;;;;;;5034353;28;20021;-78
2022/06/17 10:34:55;;;;;;;8.68;3.88;;;33.90;80.90;;;;;;5018300;28;20078;-78
2022/06/17 10:37:21;;;;;;;12.38;4.47;;;34.00;81.00;;;;;;5035794;28;20567;-78
2022/06/17 10:39:47;;;;;;;19.85;4.47;;;34.00;79.70;;;;;;5035512;28;20033;-78
2022/06/17 10:42:16;;;;;;;19.23;4.80;;;33.90;80.60;;;;;;5032719;28;20080;-78
2022/06/17 10:44:47;;;;;;;16.05;4.85;;;33.70;81.80;;;;;;4996055;28;20021;-78
2022/06/17 10:47:34;;;;;;;13.13;4.95;;;33.90;80.50;;;;;;5035431;28;20025;-78
2022/06/17 10:50:06;;;;;;;10.52;3.97;;;34.00;78.70;;;;;;5033644;28;20037;-78
2022/06/17 10:53:02;;;;;;;20.95;4.97;;;34.10;79.60;;;;;;5034884;28;20026;-78
2022/06/17 10:55:39;;;;;;;20.58;4.72;;;34.40;78.30;;;;;;5025080;28;20394;-78
2022/06/17 10:58:18;;;;;;;11.90;3.88;;;34.50;76.70;;;;;;5030109;28;20029;-78
2022/06/17 11:00:51;;;;;;;15.68;3.78;;;34.70;71.90;;;;;;5026518;28;20030;-78
2022/06/17 11:03:29;;;;;;;16.83;3.65;;;34.80;72.20;;;;;;5030869;28;20072;-78
2022/06/17 11:05:59;;;;;;;13.10;3.95;;;34.90;72.60;;;;;;5029059;28;20030;-78
2022/06/17 11:08:32;;;;;;;12.20;4.05;;;35.10;70.80;;;;;;5033987;28;20561;-77
2022/06/17 11:12:02;;;;;;;23.02;4.10;;;35.10;70.20;;;;;;5032748;28;20037;-77
2022/06/17 11:13:47;;;;;;;17.17;4.63;;;34.70;69.60;;;;;;5035326;28;20018;-78
2022/06/17 11:16:17;;;;;;;14.80;4.07;;;34.70;72.10;;;;;;5031488;28;20050;-78
2022/06/17 11:18:49;;;;;;;14.95;4.47;;;35.00;70.50;;;;;;5018260;28;20030;-78
2022/06/17 11:21:24;;;;;;;12.80;3.72;;;35.00;71.90;;;;;;5019233;28;20026;-78
2022/06/17 11:23:52;;;;;;;11.63;3.63;;;35.20;72.70;;;;;;5021479;28;20029;-78
2022/06/17 11:26:22;;;;;;;9.60;3.30;;;35.20;73.50;;;;;;5023293;28;20037;-78
2022/06/17 11:28:52;;;;;;;13.67;4.03;;;35.50;71.10;;;;;;5006383;28;20026;-78
2022/06/17 11:31:21;;;;;;;16.27;3.58;;;35.50;69.70;;;;;;5015486;28;20026;-78
2022/06/17 11:33:53;;;;;;;18.48;4.25;;;35.60;70.30;;;;;;5028208;28;20085;-77
2022/06/17 11:36:19;;;;;;;17.98;3.95;;;35.60;68.60;;;;;;5030795;28;20018;-78
2022/06/17 11:38:45;;;;;;;12.18;4.70;;;35.60;67.60;;;;;;5030666;28;20079;-78
2022/06/17 11:41:21;;;;;;;14.43;4.60;;;35.70;67.60;;;;;;5033310;28;20059;-78
2022/06/17 11:43:47;;;;;;;13.00;3.72;;;35.90;67.50;;;;;;5014899;28;20030;-79
2022/06/17 11:46:21;;;;;;;6.28;3.13;;;35.80;66.80;;;;;;5014981;28;20030;-78
2022/06/17 11:48:52;;;;;;;16.00;3.25;;;35.90;66.70;;;;;;5031170;28;20073;-78
2022/06/17 11:51:34;;;;;;;13.98;3.83;;;35.90;65.90;;;;;;5031911;28;20080;-77
2022/06/17 11:54:18;;;;;;;11.65;4.07;;;35.70;64.50;;;;;;5035666;28;20483;-78
2022/06/17 11:56:46;;;;;;;8.40;3.25;;;35.70;67.30;;;;;;5035570;28;20041;-78
2022/06/17 11:59:23;;;;;;;16.90;4.60;;;35.80;67.40;;;;;;5035316;28;20033;-78
2022/06/17 12:01:54;;;;;;;10.70;3.30;;;36.00;66.00;;;;;;5035855;28;20025;-79
2022/06/17 12:04:44;;;;;;;13.48;3.58;;;35.60;63.60;;;;;;5019575;28;20509;-77
2022/06/17 12:07:48;;;;;;;12.27;4.03;;;35.60;66.20;;;;;;5033515;28;20026;-76
2022/06/17 12:10:29;;;;;;;18.17;4.20;;;36.00;64.40;;;;;;5034334;28;20405;-78
2022/06/17 12:13:11;;;;;;;27.08;4.28;;;36.10;57.30;;;;;;5032007;28;20053;-77
2022/06/17 12:15:47;;;;;;;15.98;3.47;;;36.30;59.50;;;;;;5036533;28;20131;-77
2022/06/17 12:18:22;;;;;;;16.55;4.07;;;36.40;59.90;;;;;;5021591;28;20026;-77
2022/06/17 12:21:05;;;;;;;10.65;3.40;;;36.30;58.20;;;;;;5024677;28;20611;-77
2022/06/17 12:24:02;;;;;;;10.43;4.38;;;36.40;59.20;;;;;;5029123;28;20037;-76
2022/06/17 12:26:39;;;;;;;12.73;3.17;;;36.80;60.30;;;;;;5039148;28;20473;-78
2022/06/17 12:29:18;;;;;;;15.82;4.07;;;37.00;59.80;;;;;;5038863;28;20033;-76
2022/06/17 12:31:54;;;;;;;17.20;3.30;;;37.10;58.60;;;;;;5039206;28;20143;-79
2022/06/17 12:34:29;;;;;;;17.38;3.88;;;37.20;59.60;;;;;;5039364;28;20452;-76
2022/06/17 12:37:26;;;;;;;13.63;3.90;;;37.20;59.50;;;;;;5021047;28;20387;-75
2022/06/17 12:40:19;;;;;;;19.90;4.75;;;37.40;61.20;;;;;;5024248;28;20033;-77
2022/06/17 12:43:01;;;;;;;14.77;3.58;;;37.50;60.40;;;;;;5039187;28;20078;-77
2022/06/17 12:45:33;;;;;;;15.38;4.38;;;37.70;57.50;;;;;;5038542;28;20055;-77
2022/06/17 12:48:24;;;;;;;24.25;4.43;;;37.80;57.00;;;;;;5038731;28;20041;-77
2022/06/17 12:53:57;;;;;;;;;;;38.00;56.80;;;;;;5032777;28;20079;-78
2022/06/17 12:56:30;;;;;;;23.88;5.15;;;38.10;54.30;;;;;;5032126;28;20274;-78
2022/06/17 12:59:18;;;;;;;30.35;4.82;;;38.30;53.40;;;;;;5038005;28;20021;-76
2022/06/17 13:01:51;;;;;;;15.43;3.83;;;38.40;50.00;;;;;;5038847;28;20037;-76
2022/06/17 13:04:20;;;;;;;22.17;4.88;;;38.50;52.90;;;;;;5032311;28;20021;-76
2022/06/17 13:07:05;;;;;;;27.60;4.30;;;38.30;48.10;;;;;;5020407;28;20520;-76
2022/06/17 13:13:35;;;;;;;11.50;3.95;;;38.20;54.90;;;;;;5038188;28;20020;-75
2022/06/17 13:16:06;;;;;;;;;;;38.10;54.10;;;;;;5012633;28;20512;-76
2022/06/17 13:18:40;;;;;;;16.80;4.15;;;38.30;55.50;;;;;;5036992;28;19905;-76
2022/06/17 13:21:18;;;;;;;13.73;3.42;;;38.40;56.20;;;;;;5033097;28;20072;-76
2022/06/17 13:23:58;;;;;;;22.05;4.72;;;38.60;54.70;;;;;;5015212;28;20379;-77
2022/06/17 13:26:40;;;;;;;11.40;3.53;;;38.70;55.40;;;;;;5026874;28;20083;-76
2022/06/17 13:29:30;;;;;;;19.23;3.65;;;38.80;54.00;;;;;;5035116;28;20478;-77